Time;durP1;ratioP1;P1;durP2;ratioP2;P2;SDS_P1;SDS_P2;PMS_P1;PMS_P2;Temp;Humidity;BMP_temperature;BMP_pressure;BME280_temperature;BME280_humidity;BME280_pressure;Samples;Min_cycle;Max_cycle;Signal;HPM_P1;HPM_P2
2022/04/10 00:01:38;;;;;;;8.18;1.13;;;3.50;99.90;;;;;;4971774;28;20126;-67
2022/04/10 00:04:04;;;;;;;11.63;1.25;;;3.50;99.90;;;;;;4973093;28;20050;-67
2022/04/10 00:06:30;;;;;;;9.50;2.08;;;3.50;99.90;;;;;;4987924;28;20050;-67
2022/04/10 00:08:56;;;;;;;12.18;1.13;;;3.40;99.90;;;;;;4972113;28;20072;-67
2022/04/10 00:11:22;;;;;;;9.05;1.33;;;3.40;99.90;;;;;;4972158;28;20134;-67
2022/04/10 00:13:48;;;;;;;9.90;1.83;;;3.50;99.90;;;;;;4976798;28;20145;-67
2022/04/10 00:16:14;;;;;;;10.98;1.40;;;3.40;99.90;;;;;;4975134;28;20042;-67
2022/04/10 00:18:40;;;;;;;8.20;1.77;;;3.40;99.90;;;;;;4971277;28;20050;-67
2022/04/10 00:21:07;;;;;;;15.65;1.45;;;3.40;99.90;;;;;;4970395;28;20049;-67
2022/04/10 00:23:33;;;;;;;10.93;2.70;;;3.40;99.90;;;;;;4972573;28;20039;-67
2022/04/10 00:25:59;;;;;;;10.98;1.40;;;3.40;99.90;;;;;;4986685;28;20049;-67
2022/04/10 00:28:25;;;;;;;15.20;1.23;;;3.40;99.90;;;;;;4973558;28;20159;-67
2022/04/10 00:30:51;;;;;;;14.38;1.60;;;3.40;99.90;;;;;;4973508;28;20083;-67
2022/04/10 00:33:16;;;;;;;8.70;1.58;;;3.30;99.90;;;;;;4970376;28;20043;-67
2022/04/10 00:35:43;;;;;;;14.82;2.50;;;3.40;99.90;;;;;;4953114;28;20050;-66
2022/04/10 00:38:09;;;;;;;12.52;2.08;;;3.40;99.90;;;;;;4972758;28;20070;-66
2022/04/10 00:40:35;;;;;;;12.75;1.27;;;3.40;99.90;;;;;;4968650;28;20097;-67
2022/04/10 00:43:01;;;;;;;11.40;1.42;;;3.30;99.90;;;;;;4967351;28;20119;-67
2022/04/10 00:45:26;;;;;;;12.15;1.20;;;3.30;99.90;;;;;;4968437;28;20447;-67
2022/04/10 00:47:52;;;;;;;11.13;1.73;;;3.30;99.90;;;;;;4968922;28;20555;-67
2022/04/10 00:50:19;;;;;;;15.88;1.75;;;3.30;99.90;;;;;;4969041;28;20039;-67
2022/04/10 00:52:47;;;;;;;12.43;1.40;;;3.20;99.90;;;;;;4968905;28;20046;-66
2022/04/10 00:55:13;;;;;;;14.57;3.17;;;3.20;99.90;;;;;;4971237;28;20539;-67
2022/04/10 00:57:39;;;;;;;7.78;1.05;;;3.20;99.90;;;;;;4979824;28;20054;-67
2022/04/10 01:00:08;;;;;;;12.18;1.63;;;3.30;99.90;;;;;;4967216;28;20073;-67
2022/04/10 01:02:33;;;;;;;9.88;1.10;;;3.20;99.90;;;;;;4982229;28;20035;-67
2022/04/10 01:04:59;;;;;;;11.07;1.90;;;3.20;99.90;;;;;;4981627;28;20386;-67
2022/04/10 01:07:27;;;;;;;9.48;1.83;;;3.20;99.90;;;;;;4968602;28;20461;-67
2022/04/10 01:09:54;;;;;;;7.43;0.93;;;3.20;99.90;;;;;;4969992;28;20042;-67
2022/04/10 01:12:20;;;;;;;11.60;1.52;;;3.20;99.90;;;;;;4986545;28;20156;-67
2022/04/10 01:14:46;;;;;;;9.88;2.55;;;3.20;99.90;;;;;;4968543;28;20082;-67
2022/04/10 01:17:12;;;;;;;9.55;1.55;;;3.20;99.90;;;;;;4963163;28;20057;-66
2022/04/10 01:19:39;;;;;;;9.20;1.88;;;3.20;99.90;;;;;;4967695;28;20043;-66
2022/04/10 01:22:07;;;;;;;12.98;1.48;;;3.20;99.90;;;;;;4965155;28;20057;-67
2022/04/10 01:24:36;;;;;;;13.85;1.45;;;3.20;99.90;;;;;;4965711;28;20370;-67
2022/04/10 01:27:03;;;;;;;12.18;1.60;;;3.20;99.90;;;;;;4966406;28;20405;-67
2022/04/10 01:29:29;;;;;;;17.65;2.50;;;3.20;99.90;;;;;;4968643;28;20417;-67
2022/04/10 01:31:55;;;;;;;10.93;1.42;;;3.10;99.90;;;;;;4964731;28;20051;-66
2022/04/10 01:34:21;;;;;;;17.23;1.92;;;3.10;99.90;;;;;;4965604;28;20043;-67
2022/04/10 01:36:46;;;;;;;9.43;1.63;;;3.10;99.90;;;;;;4964420;28;20046;-67
2022/04/10 01:39:15;;;;;;;9.32;1.58;;;3.10;99.90;;;;;;4967244;28;21702;-67
2022/04/10 01:41:41;;;;;;;13.73;1.48;;;3.20;99.90;;;;;;4967262;28;20057;-67
2022/04/10 01:44:08;;;;;;;10.10;1.20;;;3.10;99.90;;;;;;4964357;28;20257;-67
2022/04/10 01:46:35;;;;;;;9.70;1.80;;;3.00;99.90;;;;;;4967522;28;20101;-66
2022/04/10 01:49:01;;;;;;;11.40;1.70;;;3.10;99.90;;;;;;4967536;28;20519;-67
2022/04/10 01:51:27;;;;;;;11.93;2.20;;;3.00;99.90;;;;;;4964379;28;20047;-67
2022/04/10 01:53:54;;;;;;;11.82;2.05;;;3.00;99.90;;;;;;4966459;28;20050;-66
2022/04/10 01:56:20;;;;;;;13.13;1.48;;;3.00;99.90;;;;;;4967146;28;20043;-67
2022/04/10 01:58:46;;;;;;;9.70;1.40;;;3.00;99.90;;;;;;4968558;28;20039;-67
2022/04/10 02:01:14;;;;;;;12.27;1.70;;;3.00;99.90;;;;;;4948461;28;20069;-67
2022/04/10 02:03:41;;;;;;;16.42;2.03;;;3.00;99.90;;;;;;4964214;28;20370;-67
2022/04/10 02:06:09;;;;;;;9.27;1.67;;;3.00;99.90;;;;;;4966069;28;20043;-67
2022/04/10 02:08:35;;;;;;;17.15;2.47;;;3.00;99.90;;;;;;4965938;28;20055;-67
2022/04/10 02:11:12;;;;;;;15.77;1.70;;;3.00;99.90;;;;;;4961817;28;20053;-67
2022/04/10 02:13:39;;;;;;;12.10;2.00;;;3.00;99.90;;;;;;4967132;28;20082;-66
2022/04/10 02:16:08;;;;;;;15.02;2.30;;;3.00;99.90;;;;;;4963265;28;20049;-67
2022/04/10 02:18:34;;;;;;;15.27;2.25;;;3.10;99.90;;;;;;4961750;28;20055;-67
2022/04/10 02:21:00;;;;;;;8.23;1.20;;;3.00;99.90;;;;;;4965813;28;20486;-67
2022/04/10 02:23:25;;;;;;;12.45;1.33;;;3.00;99.90;;;;;;4963175;28;20089;-66
2022/04/10 02:25:51;;;;;;;16.10;2.55;;;3.00;99.90;;;;;;4962009;28;20429;-67
2022/04/10 02:28:16;;;;;;;13.65;1.35;;;3.00;99.90;;;;;;4963273;28;20034;-66
2022/04/10 02:30:42;;;;;;;18.65;2.08;;;3.00;99.90;;;;;;4946810;28;20042;-67
2022/04/10 02:33:08;;;;;;;7.32;1.55;;;3.00;99.90;;;;;;4965825;28;20449;-67
2022/04/10 02:35:33;;;;;;;6.88;1.70;;;3.00;99.90;;;;;;4967189;28;20503;-67
2022/04/10 02:37:59;;;;;;;8.10;1.17;;;3.00;99.90;;;;;;4972743;28;20049;-67
2022/04/10 02:40:25;;;;;;;14.48;1.60;;;3.00;99.90;;;;;;4982533;28;20058;-67
2022/04/10 02:42:50;;;;;;;9.00;2.97;;;3.00;99.90;;;;;;4969235;28;20481;-67
2022/04/10 02:45:16;;;;;;;11.27;1.70;;;3.00;99.90;;;;;;4970348;28;20511;-67
2022/04/10 02:47:42;;;;;;;12.52;1.85;;;3.00;99.90;;;;;;4968767;28;20481;-67
2022/04/10 02:50:08;;;;;;;9.15;1.60;;;3.00;99.90;;;;;;4968249;28;20046;-67
2022/04/10 02:52:34;;;;;;;13.43;1.88;;;3.00;99.90;;;;;;4963911;28;20042;-67
2022/04/10 02:55:00;;;;;;;14.68;1.92;;;3.00;99.90;;;;;;4968603;28;20088;-67
2022/04/10 02:57:25;;;;;;;8.85;1.20;;;3.00;99.90;;;;;;4968622;28;20050;-67
2022/04/10 02:59:51;;;;;;;17.35;1.90;;;3.00;99.90;;;;;;4968875;28;20046;-67
2022/04/10 03:02:17;;;;;;;13.10;1.52;;;2.90;99.90;;;;;;4970802;28;21548;-67
2022/04/10 03:04:43;;;;;;;9.85;1.50;;;3.00;99.90;;;;;;4970098;28;20511;-67
2022/04/10 03:07:08;;;;;;;13.07;1.42;;;2.90;99.90;;;;;;4971648;28;20034;-67
2022/04/10 03:09:34;;;;;;;12.60;1.48;;;3.00;99.90;;;;;;4967445;28;20512;-67
2022/04/10 03:11:59;;;;;;;9.77;1.23;;;3.00;99.90;;;;;;4969524;28;20043;-67
2022/04/10 03:14:25;;;;;;;11.98;1.38;;;3.00;99.90;;;;;;4967826;28;20039;-66
2022/04/10 03:16:51;;;;;;;11.68;1.67;;;3.10;99.90;;;;;;4968930;28;20117;-67
2022/04/10 03:19:16;;;;;;;7.93;1.05;;;3.10;99.90;;;;;;4970107;28;20039;-67
2022/04/10 03:21:42;;;;;;;14.85;1.65;;;3.10;99.90;;;;;;4969442;28;20050;-66
2022/04/10 03:24:08;;;;;;;13.85;1.85;;;3.10;99.90;;;;;;4969190;28;20199;-67
2022/04/10 03:26:34;;;;;;;11.80;1.63;;;3.10;99.90;;;;;;4969079;28;20212;-67
2022/04/10 03:28:59;;;;;;;13.48;1.95;;;3.20;99.90;;;;;;4966927;28;20039;-67
2022/04/10 03:31:25;;;;;;;9.23;1.55;;;3.40;99.90;;;;;;4970593;28;20121;-67
2022/04/10 03:33:51;;;;;;;10.10;1.38;;;3.20;99.90;;;;;;4968815;28;20038;-67
2022/04/10 03:36:17;;;;;;;9.20;1.23;;;3.30;99.90;;;;;;4966910;28;20058;-67
2022/04/10 03:38:43;;;;;;;14.30;1.80;;;3.30;99.90;;;;;;4968740;28;20627;-66
2022/04/10 03:41:09;;;;;;;11.52;1.20;;;3.30;99.90;;;;;;4983296;28;20066;-67
2022/04/10 03:43:35;;;;;;;13.73;1.75;;;3.40;99.90;;;;;;4966607;28;20042;-67
2022/04/10 03:46:01;;;;;;;11.02;1.08;;;3.20;99.90;;;;;;4970251;28;20043;-66
2022/04/10 03:48:27;;;;;;;5.60;0.95;;;3.10;99.90;;;;;;4967912;28;20592;-66
2022/04/10 03:50:53;;;;;;;6.53;0.70;;;3.10;99.90;;;;;;4945609;28;20046;-66
2022/04/10 03:53:19;;;;;;;5.18;0.50;;;3.20;99.90;;;;;;4967772;28;20165;-66
2022/04/10 03:55:47;;;;;;;3.63;0.38;;;3.00;99.90;;;;;;4968247;28;20047;-66
2022/04/10 03:58:13;;;;;;;6.93;1.15;;;2.90;99.90;;;;;;4970311;28;20062;-65
2022/04/10 04:00:39;;;;;;;4.75;0.50;;;2.90;99.90;;;;;;4983796;28;20137;-66
2022/04/10 04:03:05;;;;;;;8.30;0.60;;;3.00;99.90;;;;;;4970869;28;20689;-65
2022/04/10 04:05:30;;;;;;;4.85;0.77;;;2.90;99.90;;;;;;4968334;28;20043;-66
2022/04/10 04:07:56;;;;;;;4.63;0.60;;;3.00;99.90;;;;;;4968886;28;20046;-66
2022/04/10 04:10:22;;;;;;;6.40;0.70;;;3.00;99.90;;;;;;4969937;28;20489;-66
2022/04/10 04:12:47;;;;;;;4.47;0.43;;;3.10;99.90;;;;;;4968125;28;20043;-66
2022/04/10 04:15:13;;;;;;;4.25;0.60;;;3.00;99.90;;;;;;4971767;28;20031;-66
2022/04/10 04:17:39;;;;;;;7.18;0.50;;;3.00;99.90;;;;;;4967872;28;20481;-66
2022/04/10 04:20:07;;;;;;;4.72;0.68;;;3.10;99.90;;;;;;4969538;28;20039;-66
2022/04/10 04:22:34;;;;;;;3.75;0.40;;;3.00;99.90;;;;;;4970926;28;20573;-66
2022/04/10 04:25:00;;;;;;;4.75;0.40;;;3.10;99.90;;;;;;4973173;28;20042;-66
2022/04/10 04:27:26;;;;;;;5.63;0.30;;;3.10;99.90;;;;;;4973976;28;20070;-66
2022/04/10 04:29:52;;;;;;;2.22;0.40;;;3.10;99.90;;;;;;4970799;28;20070;-66
2022/04/10 04:32:18;;;;;;;2.47;0.30;;;3.10;99.90;;;;;;4974954;28;20031;-66
2022/04/10 04:34:43;;;;;;;5.95;0.70;;;3.10;99.90;;;;;;4971966;28;20090;-66
2022/04/10 04:37:09;;;;;;;4.60;0.52;;;3.10;99.90;;;;;;4972022;28;20126;-66
2022/04/10 04:39:35;;;;;;;6.15;0.60;;;3.10;99.90;;;;;;4987644;28;20051;-66
2022/04/10 04:42:01;;;;;;;4.28;0.40;;;3.00;99.90;;;;;;4969993;28;20039;-66
2022/04/10 04:44:26;;;;;;;4.35;0.55;;;3.10;99.90;;;;;;4967217;28;20137;-66
2022/04/10 04:46:54;;;;;;;4.82;1.55;;;3.00;99.90;;;;;;4970156;28;20114;-66
2022/04/10 04:49:20;;;;;;;6.95;0.47;;;3.00;99.90;;;;;;4968657;28;20098;-66
2022/04/10 04:51:45;;;;;;;5.13;0.50;;;3.00;99.90;;;;;;4967529;28;20042;-66
2022/04/10 04:54:11;;;;;;;4.40;0.73;;;3.00;99.90;;;;;;4967371;28;20087;-67
2022/04/10 04:56:37;;;;;;;6.05;0.70;;;3.10;99.90;;;;;;4967751;28;20085;-67
2022/04/10 04:59:02;;;;;;;2.10;0.80;;;3.00;99.90;;;;;;4967091;28;20045;-66
2022/04/10 05:01:28;;;;;;;5.13;0.50;;;3.10;99.90;;;;;;4982376;28;20114;-67
2022/04/10 05:03:54;;;;;;;4.88;1.00;;;3.00;99.90;;;;;;4966481;28;20074;-67
2022/04/10 05:06:20;;;;;;;5.70;0.85;;;3.10;99.90;;;;;;4966357;28;20745;-67
2022/04/10 05:08:46;;;;;;;4.22;0.60;;;3.10;99.90;;;;;;4984353;28;20046;-67
2022/04/10 05:11:15;;;;;;;8.77;0.75;;;3.20;99.90;;;;;;4962297;28;20091;-67
2022/04/10 05:13:41;;;;;;;4.72;0.80;;;3.30;99.90;;;;;;4970288;28;20054;-67
2022/04/10 05:16:07;;;;;;;7.88;0.70;;;3.40;99.90;;;;;;4986146;28;20117;-67
2022/04/10 05:18:33;;;;;;;8.18;0.80;;;3.70;99.90;;;;;;4986636;28;20474;-66
2022/04/10 05:20:59;;;;;;;6.50;1.10;;;4.10;99.90;;;;;;4972211;28;20170;-66
2022/04/10 05:23:25;;;;;;;7.40;0.80;;;4.40;99.90;;;;;;4965603;28;20050;-66
2022/04/10 05:25:51;;;;;;;8.00;1.33;;;4.70;99.90;;;;;;4965127;28;20045;-66
2022/04/10 05:28:17;;;;;;;5.32;0.60;;;4.80;99.90;;;;;;4965798;28;20058;-66
2022/04/10 05:30:43;;;;;;;7.03;1.35;;;5.20;99.90;;;;;;4965963;28;20030;-66
2022/04/10 05:33:10;;;;;;;7.00;1.58;;;5.60;99.90;;;;;;4984112;28;20863;-66
2022/04/10 05:35:36;;;;;;;6.47;0.77;;;5.80;99.90;;;;;;4965436;28;20045;-66
2022/04/10 05:38:02;;;;;;;5.00;0.68;;;6.00;99.90;;;;;;4962593;28;20043;-67
2022/04/10 05:40:28;;;;;;;4.63;0.90;;;6.40;99.90;;;;;;4967647;28;20386;-67
2022/04/10 05:42:54;;;;;;;8.50;0.70;;;7.20;99.90;;;;;;4965997;28;20090;-67
2022/04/10 05:45:20;;;;;;;5.72;1.00;;;8.20;99.90;;;;;;4966312;28;20493;-67
2022/04/10 05:47:45;;;;;;;6.63;0.70;;;9.00;99.90;;;;;;4964324;28;20097;-66
2022/04/10 05:50:13;;;;;;;3.38;0.60;;;9.10;99.90;;;;;;4966011;28;20039;-67
2022/04/10 05:52:39;;;;;;;3.60;0.73;;;8.60;99.90;;;;;;4963365;28;20872;-67
2022/04/10 05:55:06;;;;;;;6.85;0.40;;;8.00;99.90;;;;;;4966427;28;20677;-67
2022/04/10 05:57:32;;;;;;;3.78;0.40;;;7.70;99.90;;;;;;4969234;28;20465;-67
2022/04/10 05:59:58;;;;;;;3.67;0.50;;;7.80;99.90;;;;;;4965386;28;20122;-66
2022/04/10 06:02:23;;;;;;;5.20;0.80;;;7.80;99.90;;;;;;4965883;28;20500;-67
2022/04/10 06:04:49;;;;;;;4.25;0.50;;;7.60;99.90;;;;;;4966448;28;20125;-67
2022/04/10 06:07:15;;;;;;;2.72;0.45;;;7.90;99.90;;;;;;4965638;28;20081;-67
2022/04/10 06:09:40;;;;;;;2.97;0.52;;;9.20;99.90;;;;;;4967688;28;20047;-67
2022/04/10 06:12:07;;;;;;;5.97;1.10;;;10.90;99.90;;;;;;4965438;28;20042;-67
2022/04/10 06:14:32;;;;;;;2.00;0.35;;;12.60;99.90;;;;;;4963069;28;20041;-67
2022/04/10 06:16:58;;;;;;;5.90;0.60;;;14.10;99.90;;;;;;4964708;28;20043;-68
2022/04/10 06:19:24;;;;;;;2.83;0.50;;;15.30;95.80;;;;;;4965517;28;20042;-67
2022/04/10 06:21:49;;;;;;;3.72;0.68;;;15.40;90.20;;;;;;4964821;28;20061;-67
2022/04/10 06:24:15;;;;;;;2.17;0.30;;;14.90;86.10;;;;;;4963197;28;20137;-68
2022/04/10 06:26:43;;;;;;;3.45;0.50;;;14.60;86.60;;;;;;4965041;28;20034;-67
2022/04/10 06:29:09;;;;;;;3.05;0.60;;;15.00;87.40;;;;;;4970519;28;20042;-68
2022/04/10 06:31:35;;;;;;;3.35;0.50;;;16.10;84.20;;;;;;4967272;28;21227;-67
2022/04/10 06:34:01;;;;;;;3.58;0.60;;;17.20;77.80;;;;;;4966536;28;20051;-68
2022/04/10 06:36:27;;;;;;;2.05;0.40;;;18.50;74.80;;;;;;4970182;28;20500;-68
2022/04/10 06:38:53;;;;;;;1.33;0.20;;;19.60;68.30;;;;;;4967743;28;20039;-68
2022/04/10 06:41:18;;;;;;;3.17;0.50;;;20.70;63.60;;;;;;4967963;28;20038;-68
2022/04/10 06:43:44;;;;;;;6.38;0.55;;;21.60;59.60;;;;;;4982623;28;20047;-68
2022/04/10 06:46:09;;;;;;;5.25;0.90;;;22.40;55.50;;;;;;4983880;28;20049;-68
2022/04/10 06:48:36;;;;;;;4.25;0.70;;;23.00;52.20;;;;;;4969504;28;20089;-68
2022/04/10 06:51:03;;;;;;;2.22;0.80;;;23.10;51.90;;;;;;4967048;28;20038;-69
2022/04/10 06:53:29;;;;;;;3.53;0.80;;;23.00;51.60;;;;;;4968873;28;20049;-68
2022/04/10 06:55:54;;;;;;;3.28;0.57;;;22.40;51.70;;;;;;4967756;28;20121;-68
2022/04/10 06:58:22;;;;;;;3.55;0.70;;;21.70;53.30;;;;;;4969953;28;20031;-69
2022/04/10 07:00:48;;;;;;;3.85;0.70;;;21.00;54.80;;;;;;4985598;28;20073;-69
2022/04/10 07:03:14;;;;;;;3.05;0.52;;;20.20;55.70;;;;;;4967297;28;20121;-69
2022/04/10 07:05:40;;;;;;;5.07;1.23;;;19.50;57.80;;;;;;4964565;28;20562;-69
2022/04/10 07:08:07;;;;;;;4.68;0.57;;;19.00;57.10;;;;;;4964019;28;20041;-69
2022/04/10 07:10:33;;;;;;;4.68;1.10;;;18.30;57.90;;;;;;4964141;28;20061;-69
2022/04/10 07:12:58;;;;;;;3.50;0.98;;;17.60;59.30;;;;;;4962347;28;20480;-69
2022/04/10 07:15:24;;;;;;;6.25;0.77;;;17.10;59.60;;;;;;4964404;28;20086;-69
2022/04/10 07:17:50;;;;;;;4.05;0.75;;;16.50;61.10;;;;;;4961092;28;20043;-69
2022/04/10 07:20:16;;;;;;;5.32;0.60;;;16.20;62.70;;;;;;4966421;28;20046;-69
2022/04/10 07:25:26;;;;;;;4.75;0.70;;;15.20;64.50;;;;;;4963815;28;20051;-68
2022/04/10 07:27:52;;;;;;;4.13;0.80;;;14.80;66.10;;;;;;4964389;28;20049;-69
2022/04/10 07:30:18;;;;;;;5.30;1.40;;;14.50;67.60;;;;;;4965972;28;20039;-68
2022/04/10 07:32:50;;;;;;;8.77;0.85;;;14.30;67.80;;;;;;4979947;28;20137;-68
2022/04/10 07:35:16;;;;;;;6.68;0.80;;;13.90;68.70;;;;;;4962690;28;20047;-68
2022/04/10 07:37:42;;;;;;;5.07;0.80;;;13.50;68.40;;;;;;4962857;28;20058;-68
2022/04/10 07:40:08;;;;;;;7.13;0.90;;;13.30;70.20;;;;;;4964277;28;20513;-68
2022/04/10 07:42:39;;;;;;;3.45;0.70;;;13.10;71.40;;;;;;4964955;28;20039;-68
2022/04/10 07:45:06;;;;;;;8.07;1.30;;;12.60;72.10;;;;;;4966017;28;20049;-68
2022/04/10 07:47:32;;;;;;;7.15;0.93;;;12.20;72.10;;;;;;4963941;28;20035;-69
2022/04/10 07:49:58;;;;;;;6.13;0.80;;;11.90;74.00;;;;;;4953163;28;20031;-68
2022/04/10 07:52:24;;;;;;;3.17;1.02;;;11.60;76.60;;;;;;4968878;28;20122;-68
2022/04/10 07:54:52;;;;;;;4.13;0.68;;;11.60;80.30;;;;;;4963374;28;20059;-68
2022/04/10 07:57:18;;;;;;;10.25;1.00;;;11.50;79.20;;;;;;4968612;28;20031;-68
2022/04/10 07:59:44;;;;;;;4.95;1.05;;;11.40;80.90;;;;;;4984156;28;20049;-68
2022/04/10 08:02:10;;;;;;;3.80;0.73;;;11.40;84.40;;;;;;4967279;28;20027;-68
2022/04/10 08:04:37;;;;;;;8.25;0.98;;;11.60;87.50;;;;;;4969777;28;20035;-68
2022/04/10 08:07:04;;;;;;;8.88;1.50;;;11.70;88.00;;;;;;4954001;28;20039;-68
2022/04/10 08:09:30;;;;;;;5.47;0.88;;;11.70;87.60;;;;;;4971044;28;20046;-68
2022/04/10 08:11:55;;;;;;;7.45;1.13;;;11.80;89.00;;;;;;4969929;28;20436;-68
2022/04/10 08:14:21;;;;;;;9.18;1.38;;;11.70;85.00;;;;;;4983469;28;20039;-68
2022/04/10 08:16:47;;;;;;;6.10;1.13;;;11.70;85.30;;;;;;4971486;28;20046;-68
2022/04/10 08:19:12;;;;;;;10.40;2.15;;;11.70;84.90;;;;;;4969721;28;20045;-68
2022/04/10 08:21:38;;;;;;;7.28;0.95;;;11.50;81.80;;;;;;4966203;28;20042;-68
2022/04/10 08:24:04;;;;;;;11.55;1.38;;;11.60;81.90;;;;;;4965968;28;20047;-68
2022/04/10 08:26:30;;;;;;;18.52;1.52;;;11.80;84.80;;;;;;4968275;28;20057;-68
2022/04/10 08:28:56;;;;;;;10.77;1.05;;;11.90;83.10;;;;;;4966738;28;20485;-68
2022/04/10 08:31:21;;;;;;;7.65;1.10;;;12.10;84.50;;;;;;4967063;28;20042;-68
2022/04/10 08:33:47;;;;;;;7.80;2.05;;;12.40;83.40;;;;;;4964064;28;20046;-68
2022/04/10 08:36:13;;;;;;;8.82;1.40;;;12.40;80.90;;;;;;4962563;28;20054;-68
2022/04/10 08:38:38;;;;;;;8.77;2.05;;;12.50;81.80;;;;;;4967852;28;20503;-68
2022/04/10 08:41:07;;;;;;;9.18;2.00;;;12.10;82.00;;;;;;4971620;28;20182;-68
2022/04/10 08:43:36;;;;;;;9.80;1.13;;;11.80;84.60;;;;;;4984681;28;20070;-67
2022/04/10 08:46:03;;;;;;;10.32;1.00;;;11.50;86.20;;;;;;4968602;28;20039;-68
2022/04/10 08:48:29;;;;;;;7.28;2.05;;;11.20;89.10;;;;;;4969366;28;20030;-68
2022/04/10 08:50:57;;;;;;;9.95;1.80;;;10.90;90.60;;;;;;4970195;28;20047;-67
2022/04/10 08:53:24;;;;;;;8.32;0.95;;;10.80;87.90;;;;;;4970337;28;20618;-68
2022/04/10 08:55:50;;;;;;;6.93;1.00;;;10.80;87.80;;;;;;4965975;28;20671;-68
2022/04/10 08:58:18;;;;;;;7.68;1.42;;;10.90;87.10;;;;;;4963529;28;20058;-68
2022/04/10 09:00:44;;;;;;;4.32;0.80;;;11.20;87.60;;;;;;4968846;28;20085;-67
2022/04/10 09:03:10;;;;;;;7.70;0.93;;;11.40;86.10;;;;;;4967452;28;20450;-67
2022/04/10 09:05:37;;;;;;;9.20;1.55;;;11.60;84.60;;;;;;4964963;28;20039;-68
2022/04/10 09:08:11;;;;;;;10.75;0.90;;;11.80;84.90;;;;;;4967396;28;20085;-68
2022/04/10 09:11:00;;;;;;;7.82;1.20;;;12.10;86.50;;;;;;4961750;28;21035;-68
2022/04/10 09:13:38;;;;;;;4.55;0.80;;;12.30;81.10;;;;;;4961353;28;20089;-68
2022/04/10 09:16:15;;;;;;;8.98;0.80;;;12.40;79.60;;;;;;4966697;28;20436;-67
2022/04/10 09:18:58;;;;;;;7.13;1.20;;;12.40;76.80;;;;;;4966962;28;20080;-68
2022/04/10 09:21:34;;;;;;;6.72;0.93;;;12.20;74.40;;;;;;4962959;28;20042;-68
2022/04/10 09:24:05;;;;;;;6.88;0.88;;;12.20;75.20;;;;;;4968587;28;20082;-68
2022/04/10 09:26:51;;;;;;;5.57;1.00;;;12.20;73.10;;;;;;4964579;28;20035;-68
2022/04/10 09:29:21;;;;;;;8.45;1.42;;;12.40;74.40;;;;;;4969390;28;20030;-67
2022/04/10 09:31:48;;;;;;;3.85;0.63;;;12.30;72.40;;;;;;4963772;28;20066;-68
2022/04/10 09:34:16;;;;;;;6.25;0.90;;;12.30;69.70;;;;;;4970320;28;20051;-68
2022/04/10 09:36:44;;;;;;;5.43;0.80;;;12.50;70.50;;;;;;4966602;28;20074;-68
2022/04/10 09:39:28;;;;;;;8.45;0.77;;;12.60;72.50;;;;;;4967503;28;20043;-69
2022/04/10 09:42:12;;;;;;;5.22;0.68;;;13.00;76.10;;;;;;4966751;28;20070;-69
2022/04/10 09:44:39;;;;;;;6.82;0.77;;;13.00;71.90;;;;;;4966968;28;20039;-70
2022/04/10 09:47:09;;;;;;;5.82;1.05;;;12.80;71.00;;;;;;4961764;28;20042;-70
2022/04/10 09:49:39;;;;;;;8.32;1.00;;;12.70;73.70;;;;;;4984332;28;20126;-70
2022/04/10 09:52:10;;;;;;;4.82;0.93;;;12.60;74.80;;;;;;4951139;28;20049;-70
2022/04/10 09:54:40;;;;;;;6.30;1.05;;;12.40;74.80;;;;;;4967035;28;20050;-70
2022/04/10 09:57:13;;;;;;;3.20;0.60;;;12.10;72.70;;;;;;4964585;28;20082;-69
2022/04/10 09:59:44;;;;;;;8.38;1.42;;;11.70;73.80;;;;;;4967946;28;20039;-69
2022/04/10 10:02:15;;;;;;;8.82;0.70;;;11.50;76.00;;;;;;4964643;28;20066;-69
2022/04/10 10:04:42;;;;;;;4.13;0.63;;;11.40;75.90;;;;;;4961876;28;20051;-69
2022/04/10 10:07:27;;;;;;;8.73;1.42;;;11.30;78.50;;;;;;4964479;28;20053;-70
2022/04/10 10:09:56;;;;;;;11.20;0.82;;;11.60;80.10;;;;;;4964679;28;20038;-69
2022/04/10 10:12:22;;;;;;;5.80;0.70;;;12.00;83.40;;;;;;4963739;28;20042;-69
2022/04/10 10:14:49;;;;;;;4.72;1.05;;;12.50;82.20;;;;;;4962211;28;20509;-69
2022/04/10 10:17:16;;;;;;;6.32;0.82;;;12.70;79.50;;;;;;4960545;28;20043;-69
2022/04/10 10:19:42;;;;;;;9.68;1.80;;;12.80;79.10;;;;;;4963692;28;20049;-69
2022/04/10 10:22:10;;;;;;;4.90;0.90;;;12.70;77.00;;;;;;4965191;28;20031;-69
2022/04/10 10:24:45;;;;;;;7.00;1.10;;;12.90;79.00;;;;;;4962423;28;20070;-69
2022/04/10 10:27:38;;;;;;;7.28;1.52;;;13.10;78.10;;;;;;4964352;28;20374;-69
2022/04/10 10:30:07;;;;;;;4.30;0.73;;;13.30;76.20;;;;;;4980797;28;20038;-69
2022/04/10 10:32:43;;;;;;;7.72;1.20;;;13.50;77.20;;;;;;4967240;28;20051;-69
2022/04/10 10:35:09;;;;;;;;;;;13.70;79.10;;;;;;4966324;28;20153;-68
2022/04/10 10:37:53;;;;;;;12.85;1.85;;;13.70;74.10;;;;;;4966702;28;19948;-70
2022/04/10 10:40:20;;;;;;;7.32;0.85;;;13.70;75.50;;;;;;4964442;28;20031;-72
2022/04/10 10:42:50;;;;;;;7.80;0.82;;;13.40;75.20;;;;;;4965335;28;20043;-68
2022/04/10 10:45:33;;;;;;;6.20;1.23;;;13.00;73.90;;;;;;4964081;28;20057;-73
2022/04/10 10:48:24;;;;;;;6.60;0.75;;;12.60;73.50;;;;;;4965309;28;21973;-70
2022/04/10 10:50:51;;;;;;;8.93;1.38;;;12.60;74.30;;;;;;4965742;28;20053;-72
2022/04/10 10:53:23;;;;;;;14.40;1.30;;;12.70;75.50;;;;;;4963191;28;20042;-75
2022/04/10 10:55:50;;;;;;;9.70;1.23;;;13.10;75.90;;;;;;4965916;28;20050;-71
2022/04/10 10:58:31;;;;;;;7.22;0.85;;;13.30;75.90;;;;;;4965274;28;20039;-70
2022/04/10 11:01:03;;;;;;;8.40;0.82;;;13.60;74.10;;;;;;4965659;28;20055;-68
2022/04/10 11:03:29;;;;;;;7.82;1.05;;;13.60;74.50;;;;;;4960665;28;20062;-69
2022/04/10 11:06:05;;;;;;;6.60;0.95;;;13.30;72.80;;;;;;4962546;28;20042;-70
2022/04/10 11:08:39;;;;;;;6.13;0.80;;;13.00;72.40;;;;;;4961622;28;20043;-70
2022/04/10 11:11:05;;;;;;;4.40;0.60;;;12.90;73.50;;;;;;4961348;28;20092;-68
2022/04/10 11:13:46;;;;;;;3.95;0.60;;;13.10;74.30;;;;;;4961271;28;20042;-68
2022/04/10 11:16:13;;;;;;;7.40;0.70;;;13.50;75.20;;;;;;4964410;28;20418;-69
2022/04/10 11:18:43;;;;;;;3.90;0.70;;;13.70;70.70;;;;;;4962640;28;20430;-70
2022/04/10 11:21:16;;;;;;;5.38;0.60;;;14.00;71.00;;;;;;4964560;28;20057;-71
2022/04/10 11:23:45;;;;;;;4.60;0.70;;;14.10;71.60;;;;;;4962215;28;20058;-71
2022/04/10 11:26:21;;;;;;;6.35;1.10;;;14.30;71.80;;;;;;4965368;28;20909;-71
2022/04/10 11:29:07;;;;;;;4.80;0.57;;;13.90;66.30;;;;;;4964582;28;20053;-71
2022/04/10 11:31:36;;;;;;;9.85;0.77;;;13.60;68.90;;;;;;4962177;28;20533;-71
2022/04/10 11:34:19;;;;;;;7.05;1.58;;;13.10;69.00;;;;;;4962454;28;20062;-71
2022/04/10 11:36:52;;;;;;;12.35;1.05;;;13.10;70.70;;;;;;4966583;28;20081;-71
2022/04/10 11:39:28;;;;;;;5.82;1.08;;;13.10;71.70;;;;;;4974304;28;20409;-71
2022/04/10 11:42:01;;;;;;;8.88;1.15;;;13.10;73.30;;;;;;4980980;28;20439;-71
2022/04/10 11:44:27;;;;;;;6.43;0.73;;;13.20;70.10;;;;;;4965290;28;20050;-71
2022/04/10 11:46:53;;;;;;;5.13;0.73;;;13.10;69.10;;;;;;4967730;28;20056;-71
2022/04/10 11:49:20;;;;;;;4.40;0.80;;;13.40;71.50;;;;;;4964285;28;20039;-71
2022/04/10 11:51:53;;;;;;;3.60;0.60;;;13.60;70.80;;;;;;4963793;28;20043;-71
2022/04/10 11:54:33;;;;;;;4.53;0.82;;;13.10;67.40;;;;;;4964384;28;20038;-71
2022/04/10 11:57:02;;;;;;;5.43;0.60;;;12.90;68.90;;;;;;4964736;28;20149;-71
2022/04/10 11:59:34;;;;;;;3.65;0.63;;;12.90;71.70;;;;;;4965210;28;20046;-71
2022/04/10 12:02:00;;;;;;;3.53;0.68;;;13.20;73.90;;;;;;4964199;28;20050;-71
2022/04/10 12:04:27;;;;;;;6.97;0.70;;;13.40;71.20;;;;;;4966000;28;20260;-71
2022/04/10 12:07:08;;;;;;;6.05;0.70;;;13.60;68.60;;;;;;4965908;28;20041;-71
2022/04/10 12:09:34;;;;;;;6.13;0.95;;;13.70;69.40;;;;;;4964521;28;20488;-71
2022/04/10 12:12:00;;;;;;;4.22;0.73;;;13.80;69.00;;;;;;4966501;28;20130;-71
2022/04/10 12:14:25;;;;;;;6.65;1.10;;;13.90;69.60;;;;;;4968225;28;20420;-72
2022/04/10 12:16:54;;;;;;;6.72;0.85;;;14.00;63.70;;;;;;4970430;28;20118;-72
2022/04/10 12:19:36;;;;;;;3.40;0.70;;;14.00;66.00;;;;;;4969456;28;20053;-72
2022/04/10 12:22:07;;;;;;;3.45;0.70;;;14.20;66.00;;;;;;4969668;28;20073;-72
2022/04/10 12:24:34;;;;;;;8.77;0.98;;;14.10;66.00;;;;;;4967290;28;20047;-72
2022/04/10 12:27:03;;;;;;;6.18;0.90;;;14.00;67.50;;;;;;4969890;28;20043;-72
2022/04/10 12:29:30;;;;;;;4.93;0.80;;;13.80;67.50;;;;;;4970568;28;20046;-72
2022/04/10 12:31:57;;;;;;;2.95;0.50;;;13.60;66.40;;;;;;4984285;28;20105;-74
2022/04/10 12:34:23;;;;;;;3.33;0.40;;;13.70;66.40;;;;;;4966795;28;20050;-73
2022/04/10 12:36:52;;;;;;;5.20;0.88;;;13.70;64.10;;;;;;4969352;28;20053;-74
2022/04/10 12:39:26;;;;;;;4.78;0.80;;;13.60;62.50;;;;;;4967113;28;20093;-74
2022/04/10 12:42:03;;;;;;;5.65;0.40;;;13.50;64.00;;;;;;4968348;28;20155;-71
2022/04/10 12:44:29;;;;;;;6.47;0.60;;;13.30;65.70;;;;;;4969049;28;20400;-71
2022/04/10 12:46:55;;;;;;;10.88;1.52;;;13.20;67.00;;;;;;4968538;28;20054;-70
2022/04/10 12:49:23;;;;;;;6.47;0.60;;;13.40;69.90;;;;;;4969068;28;20460;-69
2022/04/10 12:51:50;;;;;;;5.05;0.47;;;13.60;68.60;;;;;;4967544;28;20050;-71
2022/04/10 12:54:15;;;;;;;3.78;0.95;;;13.80;64.10;;;;;;4968844;28;20042;-70
2022/04/10 12:56:41;;;;;;;4.95;0.90;;;13.90;66.90;;;;;;4968873;28;20043;-72